createdAt,value
2018-02-05T00:00:11.756Z,22.05
2018-02-05T00:02:39.892Z,23.62
2018-02-05T00:05:08.037Z,22.02
2018-02-05T00:07:36.159Z,21.60
2018-02-05T00:10:04.339Z,21.90
2018-02-05T00:12:32.483Z,21.15
2018-02-05T00:15:00.676Z,22.30
2018-02-05T00:17:28.814Z,21.45
2018-02-05T00:19:56.985Z,20.75
2018-02-05T00:22:25.093Z,23.50
2018-02-05T00:24:53.246Z,22.50
2018-02-05T00:27:21.432Z,22.85
2018-02-05T00:29:50.359Z,22.98
2018-02-05T00:32:18.493Z,20.40
2018-02-05T00:34:47.410Z,22.17
2018-02-05T00:37:15.564Z,21.50
2018-02-05T00:39:43.700Z,20.55
2018-02-05T00:42:11.853Z,21.30
2018-02-05T00:44:39.982Z,23.20
2018-02-05T00:47:08.121Z,20.73
2018-02-05T00:49:36.257Z,21.23
2018-02-05T00:52:04.401Z,18.80
2018-02-05T00:54:32.562Z,21.40
2018-02-05T00:57:01.473Z,21.15
2018-02-05T00:59:29.595Z,21.02
2018-02-05T01:01:57.737Z,21.23
2018-02-05T01:04:26.630Z,22.35
2018-02-05T01:06:55.547Z,19.95
2018-02-05T01:09:23.665Z,22.10
2018-02-05T01:11:51.866Z,21.80
2018-02-05T01:14:20.010Z,18.67
2018-02-05T01:16:48.132Z,20.80
2018-02-05T01:19:16.269Z,20.67
2018-02-05T01:21:44.437Z,21.77
2018-02-05T01:24:12.613Z,21.58
2018-02-05T01:26:40.735Z,18.60
2018-02-05T01:29:08.900Z,21.33
2018-02-05T01:31:37.025Z,17.70
2018-02-05T01:34:05.160Z,21.45
2018-02-05T01:36:33.281Z,20.35
2018-02-05T01:39:01.485Z,22.05
2018-02-05T01:41:29.562Z,21.45
2018-02-05T01:43:58.468Z,20.98
2018-02-05T01:46:27.389Z,22.27
2018-02-05T01:48:55.595Z,21.17
2018-02-05T01:51:23.769Z,20.52
2018-02-05T01:53:51.944Z,20.73
2018-02-05T01:56:20.092Z,20.83
2018-02-05T01:58:48.246Z,19.35
2018-02-05T02:01:16.418Z,19.33
2018-02-05T02:03:44.552Z,19.90
2018-02-05T02:06:13.480Z,20.30
2018-02-05T02:08:41.611Z,19.83
2018-02-05T02:11:10.558Z,20.60
2018-02-05T02:13:38.701Z,20.62
2018-02-05T02:16:06.851Z,20.48
2018-02-05T02:18:34.992Z,20.55
2018-02-05T02:21:03.210Z,20.37
2018-02-05T02:23:31.326Z,19.52
2018-02-05T02:26:00.301Z,21.33
2018-02-05T02:28:42.145Z,20.92
2018-02-05T02:31:10.303Z,21.08
2018-02-05T02:33:38.433Z,20.70
2018-02-05T02:36:06.608Z,19.70
2018-02-05T02:38:34.760Z,23.00
2018-02-05T02:41:02.939Z,19.85
2018-02-05T02:43:31.074Z,18.95
2018-02-05T02:46:00.008Z,20.27
2018-02-05T02:48:28.153Z,20.25
2018-02-05T02:50:56.311Z,18.77
2018-02-05T02:53:25.212Z,18.75
2018-02-05T02:55:53.394Z,19.87
2018-02-05T02:58:21.535Z,19.08
2018-02-05T03:00:49.721Z,20.35
2018-02-05T03:03:18.668Z,19.40
2018-02-05T03:05:47.645Z,20.92
2018-02-05T03:08:15.776Z,19.58
2018-02-05T03:10:44.670Z,20.45
2018-02-05T03:13:13.632Z,19.92
2018-02-05T03:15:41.801Z,19.95
2018-02-05T03:18:09.941Z,19.65
2018-02-05T03:20:38.068Z,19.55
2018-02-05T03:23:06.979Z,19.62
2018-02-05T03:25:35.118Z,18.95
2018-02-05T03:28:03.313Z,18.70
2018-02-05T03:30:32.275Z,19.05
2018-02-05T03:33:00.455Z,18.58
2018-02-05T03:35:29.365Z,19.87
2018-02-05T03:37:58.302Z,19.20
2018-02-05T03:40:26.456Z,22.62
2018-02-05T03:42:54.608Z,21.00
2018-02-05T03:45:23.848Z,19.95
2018-02-05T03:47:51.991Z,19.35
2018-02-05T03:50:20.120Z,19.85
2018-02-05T03:52:49.055Z,18.83
2018-02-05T03:55:17.177Z,19.62
2018-02-05T03:57:45.322Z,20.17
2018-02-05T04:00:13.452Z,20.75
2018-02-05T04:02:41.648Z,20.05
2018-02-05T04:05:09.797Z,19.98
2018-02-05T04:07:37.942Z,18.55
2018-02-05T04:10:06.862Z,19.37
2018-02-05T04:12:35.062Z,19.75
2018-02-05T04:15:03.181Z,18.48
2018-02-05T04:17:32.101Z,19.73
2018-02-05T04:20:00.254Z,18.10
2018-02-05T04:22:28.410Z,18.87
2018-02-05T04:24:57.308Z,17.67
2018-02-05T04:27:26.201Z,17.05
2018-02-05T04:29:54.369Z,19.05
2018-02-05T04:32:23.280Z,18.05
2018-02-05T04:34:51.741Z,17.40
2018-02-05T04:37:19.889Z,18.55
2018-02-05T04:39:48.040Z,16.95
2018-02-05T04:42:16.168Z,19.02
2018-02-05T04:44:44.340Z,18.40
2018-02-05T04:47:12.466Z,18.30
2018-02-05T04:49:40.646Z,18.23
2018-02-05T04:52:08.826Z,16.75
2018-02-05T04:54:37.758Z,16.92
2018-02-05T04:57:05.893Z,16.75
2018-02-05T04:59:34.052Z,14.90
2018-02-05T05:02:02.222Z,17.95
2018-02-05T05:04:30.364Z,23.67
2018-02-05T05:06:58.505Z,20.27
2018-02-05T05:09:26.904Z,17.77
2018-02-05T05:11:55.038Z,19.00
2018-02-05T05:14:23.921Z,21.77
2018-02-05T05:16:53.206Z,18.65
2018-02-05T05:19:21.328Z,19.67
2018-02-05T05:21:49.471Z,20.52
2018-02-05T05:24:18.377Z,15.93
2018-02-05T05:26:46.535Z,15.18
2018-02-05T05:29:14.673Z,16.73
2018-02-05T05:31:42.858Z,16.90
2018-02-05T05:34:11.769Z,19.52
2018-02-05T05:36:39.985Z,16.58
2018-02-05T05:39:08.116Z,16.15
2018-02-05T05:41:36.288Z,15.63
2018-02-05T05:44:04.430Z,17.55
2018-02-05T05:46:32.564Z,17.08
2018-02-05T05:49:00.692Z,19.12
2018-02-05T05:51:29.642Z,19.40
2018-02-05T05:53:57.753Z,23.48
2018-02-05T05:56:26.675Z,25.15
2018-02-05T05:58:54.820Z,20.35
2018-02-05T06:01:23.005Z,19.90
2018-02-05T06:03:51.141Z,19.62
2018-02-05T06:06:20.105Z,18.33
2018-02-05T06:08:48.236Z,19.48
2018-02-05T06:11:16.382Z,17.58
2018-02-05T06:13:44.519Z,16.42
2018-02-05T06:16:12.757Z,18.27
2018-02-05T06:18:40.941Z,19.10
2018-02-05T06:21:09.078Z,17.20
2018-02-05T06:23:37.229Z,17.80
2018-02-05T06:26:05.352Z,18.83
2018-02-05T06:28:33.529Z,18.00
2018-02-05T06:31:01.650Z,16.90
2018-02-05T06:33:29.813Z,17.00
2018-02-05T06:35:57.948Z,17.20
2018-02-05T06:38:26.124Z,18.30
2018-02-05T06:40:54.255Z,19.33
2018-02-05T06:43:22.393Z,19.58
2018-02-05T06:45:50.540Z,17.70
2018-02-05T06:48:18.774Z,19.23
2018-02-05T06:50:58.985Z,18.80
2018-02-05T06:53:38.909Z,17.10
2018-02-05T06:56:16.565Z,17.73
2018-02-05T06:58:45.526Z,17.60
2018-02-05T07:01:13.660Z,17.60
2018-02-05T07:03:41.813Z,16.48
2018-02-05T07:06:10.078Z,17.60
2018-02-05T07:08:38.974Z,16.55
2018-02-05T07:11:07.115Z,15.43
2018-02-05T07:13:35.245Z,15.30
2018-02-05T07:16:03.640Z,15.95
2018-02-05T07:18:31.806Z,16.77
2018-02-05T07:20:59.952Z,15.07
2018-02-05T07:23:28.077Z,17.37
2018-02-05T07:25:56.992Z,16.55
2018-02-05T07:28:25.141Z,16.83
2018-02-05T07:30:53.293Z,16.70
2018-02-05T07:33:21.447Z,14.18
2018-02-05T07:35:49.590Z,14.35
2018-02-05T07:38:17.720Z,14.70
2018-02-05T07:40:46.686Z,13.75
2018-02-05T07:43:14.795Z,14.90
2018-02-05T07:45:42.969Z,13.00
2018-02-05T07:48:11.097Z,15.05
2018-02-05T07:50:39.238Z,15.53
2018-02-05T07:53:07.364Z,15.77
2018-02-05T07:55:36.269Z,13.00
2018-02-05T07:58:04.421Z,13.20
2018-02-05T08:00:32.556Z,12.83
2018-02-05T08:03:00.684Z,15.20
2018-02-05T08:05:29.611Z,14.53
2018-02-05T08:07:57.759Z,12.83
2018-02-05T08:10:26.647Z,13.87
2018-02-05T08:12:54.791Z,13.43
2018-02-05T08:15:23.718Z,12.20
2018-02-05T08:17:51.857Z,12.33
2018-02-05T08:20:20.769Z,12.83
2018-02-05T08:22:48.901Z,13.10
2018-02-05T08:25:17.037Z,12.50
2018-02-05T08:27:45.945Z,12.20
2018-02-05T08:30:14.095Z,14.20
2018-02-05T08:32:42.237Z,19.00
2018-02-05T08:35:10.365Z,12.88
2018-02-05T08:37:38.717Z,13.07
2018-02-05T08:40:06.840Z,12.83
2018-02-05T08:42:34.993Z,10.73
2018-02-05T08:45:03.368Z,11.47
2018-02-05T08:47:31.554Z,13.57
2018-02-05T08:50:00.443Z,12.80
2018-02-05T08:52:28.569Z,11.03
2018-02-05T08:54:56.741Z,12.93
2018-02-05T08:57:24.883Z,11.23
2018-02-05T08:59:53.037Z,11.40
2018-02-05T09:02:21.937Z,12.23
2018-02-05T09:04:50.092Z,11.83
2018-02-05T09:07:18.975Z,11.93
2018-02-05T09:09:47.154Z,12.73
2018-02-05T09:12:16.048Z,12.10
2018-02-05T09:14:44.964Z,10.60
2018-02-05T09:17:13.098Z,10.70
2018-02-05T09:19:42.039Z,10.70
2018-02-05T09:22:10.152Z,11.00
2018-02-05T09:24:38.289Z,9.90
2018-02-05T09:27:06.417Z,11.43
2018-02-05T09:29:34.569Z,11.23
2018-02-05T09:32:02.753Z,11.17
2018-02-05T09:34:31.677Z,11.33
2018-02-05T09:37:00.368Z,11.00
2018-02-05T09:39:28.515Z,11.97
2018-02-05T09:41:56.651Z,11.13
2018-02-05T09:44:25.522Z,9.30
2018-02-05T09:46:54.347Z,10.17
2018-02-05T09:49:23.632Z,11.70
2018-02-05T09:51:52.104Z,10.53
2018-02-05T09:54:20.233Z,9.80
2018-02-05T09:56:48.362Z,12.00
2018-02-05T09:59:16.534Z,10.10
2018-02-05T10:01:44.649Z,9.60
2018-02-05T10:04:12.773Z,8.63
2018-02-05T10:06:42.050Z,9.23
2018-02-05T10:09:10.188Z,9.10
2018-02-05T10:11:38.658Z,8.63
2018-02-05T10:14:06.798Z,8.97
2018-02-05T10:16:35.689Z,9.40
2018-02-05T10:19:03.808Z,8.80
2018-02-05T10:21:31.939Z,8.43
2018-02-05T10:24:00.824Z,13.30
2018-02-05T10:26:28.986Z,9.43
2018-02-05T10:28:57.936Z,9.07
2018-02-05T10:31:26.080Z,10.37
2018-02-05T10:33:54.225Z,7.90
2018-02-05T10:36:23.170Z,7.63
2018-02-05T10:38:51.337Z,8.20
2018-02-05T10:41:19.461Z,8.33
2018-02-05T10:43:48.384Z,8.13
2018-02-05T10:46:16.508Z,8.37
2018-02-05T10:48:45.408Z,7.60
2018-02-05T10:51:14.293Z,8.80
2018-02-05T10:53:43.597Z,7.80
2018-02-05T10:56:12.480Z,7.70
2018-02-05T10:58:41.385Z,7.10
2018-02-05T11:01:09.512Z,8.00
2018-02-05T11:03:37.672Z,7.30
2018-02-05T11:06:05.808Z,7.27
2018-02-05T11:08:33.962Z,7.30
2018-02-05T11:11:02.858Z,7.83
2018-02-05T11:13:31.004Z,7.07
2018-02-05T11:15:59.116Z,7.60
2018-02-05T11:18:27.259Z,7.70
2018-02-05T11:20:56.213Z,9.10
2018-02-05T11:23:24.357Z,8.43
2018-02-05T11:25:52.887Z,9.50
2018-02-05T11:28:21.056Z,7.20
2018-02-05T11:30:49.216Z,8.13
2018-02-05T11:33:17.337Z,8.03
2018-02-05T11:35:45.484Z,8.27
2018-02-05T11:38:14.388Z,7.53
2018-02-05T11:40:42.752Z,9.67
2018-02-05T11:43:11.630Z,7.47
2018-02-05T11:45:39.773Z,7.87
2018-02-05T11:48:07.895Z,8.00
2018-02-05T11:50:36.796Z,7.77
2018-02-05T11:53:04.961Z,8.87
2018-02-05T11:55:33.127Z,8.00
2018-02-05T11:58:02.376Z,8.63
2018-02-05T12:00:30.604Z,8.30
2018-02-05T12:02:58.713Z,7.40
2018-02-05T12:05:26.824Z,7.90
2018-02-05T12:07:55.729Z,6.80
2018-02-05T12:10:24.609Z,7.83
2018-02-05T12:12:53.517Z,7.97
2018-02-05T12:15:22.204Z,9.13
2018-02-05T12:17:50.356Z,7.77
2018-02-05T12:20:18.478Z,7.50
2018-02-05T12:22:46.954Z,8.07
2018-02-05T12:25:15.083Z,8.10
2018-02-05T12:27:43.968Z,7.13
2018-02-05T12:30:12.856Z,8.40
2018-02-05T12:32:41.041Z,8.63
2018-02-05T12:35:09.160Z,9.07
2018-02-05T12:37:37.302Z,8.10
2018-02-05T12:40:06.190Z,8.33
2018-02-05T12:42:34.326Z,7.03
2018-02-05T12:45:03.212Z,7.80
2018-02-05T12:47:31.373Z,7.77
2018-02-05T12:49:59.480Z,8.67
2018-02-05T12:52:27.655Z,7.47
2018-02-05T12:54:55.785Z,7.97
2018-02-05T12:57:23.901Z,8.40
2018-02-05T13:00:10.105Z,7.00
2018-02-05T13:02:39.080Z,8.60
2018-02-05T13:05:22.081Z,8.47
2018-02-05T13:07:50.231Z,9.00
2018-02-05T13:10:18.344Z,8.40
2018-02-05T13:12:46.497Z,7.80
2018-02-05T13:15:14.630Z,8.10
2018-02-05T13:17:42.749Z,9.57
2018-02-05T13:20:10.874Z,8.20
2018-02-05T13:22:38.994Z,7.40
2018-02-05T13:25:07.145Z,9.33
2018-02-05T13:27:36.046Z,9.17
2018-02-05T13:30:04.169Z,8.93
2018-02-05T13:32:32.302Z,9.07
2018-02-05T13:35:00.502Z,8.73
2018-02-05T13:37:28.618Z,7.80
2018-02-05T13:39:56.777Z,9.65
2018-02-05T13:42:24.900Z,8.90
2018-02-05T13:44:53.802Z,8.70
2018-02-05T13:47:21.972Z,10.32
2018-02-05T13:49:50.127Z,9.20
2018-02-05T13:52:18.292Z,8.02
2018-02-05T13:54:46.468Z,8.52
2018-02-05T13:57:15.162Z,9.10
2018-02-05T13:59:43.272Z,8.82
2018-02-05T14:02:11.409Z,9.20
2018-02-05T14:04:39.540Z,8.88
2018-02-05T14:07:07.674Z,8.40
2018-02-05T14:09:35.804Z,8.70
2018-02-05T14:12:03.948Z,8.65
2018-02-05T14:14:32.840Z,9.98
2018-02-05T14:17:01.742Z,9.18
2018-02-05T14:19:29.912Z,7.78
2018-02-05T14:21:58.052Z,9.05
2018-02-05T14:24:26.952Z,9.80
2018-02-05T14:26:55.858Z,8.65
2018-02-05T14:29:23.983Z,8.43
2018-02-05T14:31:52.151Z,8.45
2018-02-05T14:34:20.252Z,9.20
2018-02-05T14:36:48.397Z,9.15
2018-02-05T14:39:16.530Z,8.60
2018-02-05T14:41:45.007Z,9.75
2018-02-05T14:44:13.132Z,9.27
2018-02-05T14:46:41.273Z,8.50
2018-02-05T14:49:09.417Z,9.18
2018-02-05T14:51:37.534Z,9.60
2018-02-05T14:54:05.683Z,9.55
2018-02-05T14:56:33.816Z,9.80
2018-02-05T14:59:01.970Z,9.55
2018-02-05T15:01:30.096Z,9.73
2018-02-05T15:03:58.265Z,8.98
2018-02-05T15:06:26.412Z,9.80
2018-02-05T15:08:54.576Z,9.02
2018-02-05T15:11:22.704Z,8.55
2018-02-05T15:13:50.888Z,8.93
2018-02-05T15:16:19.044Z,8.68
2018-02-05T15:18:47.215Z,8.60
2018-02-05T15:21:15.328Z,9.65
2018-02-05T15:23:43.444Z,8.05
2018-02-05T15:26:12.339Z,8.57
2018-02-05T15:28:40.470Z,10.20
2018-02-05T15:31:08.950Z,9.80
2018-02-05T15:33:37.848Z,9.43
2018-02-05T15:36:06.757Z,11.02
2018-02-05T15:38:34.882Z,9.93
2018-02-05T15:41:03.042Z,10.45
2018-02-05T15:43:31.158Z,9.32
2018-02-05T15:45:59.293Z,9.90
2018-02-05T15:48:28.020Z,9.27
2018-02-05T15:50:56.132Z,11.00
2018-02-05T15:53:24.254Z,27.65
2018-02-05T15:55:52.405Z,11.45
2018-02-05T15:58:21.302Z,10.13
2018-02-05T16:00:49.488Z,11.25
2018-02-05T16:03:18.357Z,10.10
2018-02-05T16:05:46.610Z,9.85
2018-02-05T16:08:14.796Z,9.77
2018-02-05T16:10:42.921Z,9.18
2018-02-05T16:13:11.052Z,9.00
2018-02-05T16:15:39.181Z,9.80
2018-02-05T16:18:07.322Z,8.85
2018-02-05T16:20:35.454Z,9.25
2018-02-05T16:23:04.353Z,9.60
2018-02-05T16:25:32.479Z,8.90
2018-02-05T16:28:00.627Z,9.25
2018-02-05T16:30:28.752Z,10.07
2018-02-05T16:32:57.256Z,9.77
2018-02-05T16:35:25.727Z,10.27
2018-02-05T16:37:54.613Z,10.65
2018-02-05T16:40:23.517Z,10.27
2018-02-05T16:42:51.658Z,12.18
2018-02-05T16:45:20.544Z,9.52
2018-02-05T16:47:49.449Z,10.38
2018-02-05T16:50:17.569Z,10.10
2018-02-05T16:52:46.476Z,10.25
2018-02-05T16:55:14.658Z,10.02
2018-02-05T16:57:42.816Z,10.75
2018-02-05T17:00:10.937Z,12.73
2018-02-05T17:02:39.644Z,11.60
2018-02-05T17:05:07.762Z,10.68
2018-02-05T17:07:36.664Z,11.00
2018-02-05T17:10:08.112Z,10.05
2018-02-05T17:12:36.232Z,10.60
2018-02-05T17:15:04.344Z,12.05
2018-02-05T17:17:33.257Z,11.35
2018-02-05T17:20:01.386Z,11.95
2018-02-05T17:22:29.536Z,11.20
2018-02-05T17:24:57.666Z,10.32
2018-02-05T17:27:26.153Z,10.50
2018-02-05T17:29:55.044Z,12.50
2018-02-05T17:32:23.180Z,11.40
2018-02-05T17:34:52.241Z,12.68
2018-02-05T17:37:20.392Z,11.68
2018-02-05T17:39:48.534Z,11.73
2018-02-05T17:42:17.813Z,12.25
2018-02-05T17:44:46.052Z,12.85
2018-02-05T17:47:14.902Z,12.60
2018-02-05T17:49:43.041Z,11.73
2018-02-05T17:52:11.188Z,13.30
2018-02-05T17:54:39.338Z,12.82
2018-02-05T17:57:07.486Z,12.65
2018-02-05T17:59:35.633Z,12.48
2018-02-05T18:02:03.769Z,12.15
2018-02-05T18:04:31.904Z,12.43
2018-02-05T18:07:00.876Z,11.88
2018-02-05T18:09:34.237Z,11.80
2018-02-05T18:12:02.374Z,14.18
2018-02-05T18:14:30.557Z,12.35
2018-02-05T18:16:58.668Z,12.50
2018-02-05T18:19:27.168Z,13.20
2018-02-05T18:21:55.289Z,15.25
2018-02-05T18:24:23.444Z,13.45
2018-02-05T18:26:51.576Z,17.17
2018-02-05T18:29:22.117Z,11.90
2018-02-05T18:31:50.830Z,11.50
2018-02-05T18:34:18.984Z,12.10
2018-02-05T18:36:47.117Z,13.65
2018-02-05T18:39:15.262Z,13.40
2018-02-05T18:41:43.408Z,12.70
2018-02-05T18:44:11.556Z,14.32
2018-02-05T18:46:40.453Z,13.40
2018-02-05T18:49:09.360Z,13.05
2018-02-05T18:51:37.479Z,13.40
2018-02-05T18:54:05.684Z,12.07
2018-02-05T18:56:44.716Z,12.95
2018-02-05T18:59:12.856Z,12.27
2018-02-05T19:01:41.050Z,12.70
2018-02-05T19:04:09.259Z,13.50
2018-02-05T19:06:37.357Z,13.55
2018-02-05T19:09:05.507Z,12.45
2018-02-05T19:11:33.626Z,13.90
2018-02-05T19:14:02.536Z,14.70
2018-02-05T19:16:30.689Z,13.75
2018-02-05T19:18:59.642Z,14.35
2018-02-05T19:21:27.760Z,14.15
2018-02-05T19:23:55.896Z,13.75
2018-02-05T19:26:24.024Z,13.00
2018-02-05T19:28:52.192Z,13.95
2018-02-05T19:31:20.430Z,15.80
2018-02-05T19:33:48.577Z,15.13
2018-02-05T19:36:16.720Z,14.98
2018-02-05T19:38:44.876Z,14.00
2018-02-05T19:41:13.014Z,14.55
2018-02-05T19:43:41.145Z,15.98
2018-02-05T19:46:10.169Z,14.02
2018-02-05T19:48:38.596Z,14.55
2018-02-05T19:51:06.770Z,15.30
2018-02-05T19:53:34.917Z,14.45
2018-02-05T19:56:03.101Z,14.55
2018-02-05T19:58:31.250Z,15.05
2018-02-05T20:00:59.435Z,15.63
2018-02-05T20:03:28.368Z,18.05
2018-02-05T20:05:56.489Z,15.18
2018-02-05T20:08:25.413Z,16.40
2018-02-05T20:10:53.548Z,15.43
2018-02-05T20:13:21.678Z,15.15
2018-02-05T20:15:49.822Z,17.42
2018-02-05T20:18:17.942Z,16.40
2018-02-05T20:20:46.085Z,15.35
2018-02-05T20:23:15.009Z,16.15
2018-02-05T20:25:43.149Z,15.15
2018-02-05T20:28:21.914Z,15.63
2018-02-05T20:30:50.838Z,15.65
2018-02-05T20:33:18.977Z,16.05
2018-02-05T20:35:47.115Z,14.65
2018-02-05T20:38:15.292Z,15.32
2018-02-05T20:40:43.420Z,15.35
2018-02-05T20:43:11.609Z,17.12
2018-02-05T20:45:40.464Z,15.30
2018-02-05T20:48:08.655Z,17.58
2018-02-05T20:50:36.848Z,17.17
2018-02-05T20:53:04.977Z,16.20
2018-02-05T20:55:33.902Z,15.02
2018-02-05T20:58:02.169Z,15.93
2018-02-05T21:00:30.292Z,17.42
2018-02-05T21:02:58.426Z,15.70
2018-02-05T21:05:26.568Z,16.35
2018-02-05T21:07:54.702Z,16.62
2018-02-05T21:10:22.845Z,15.00
2018-02-05T21:12:51.052Z,15.57
2018-02-05T21:15:19.241Z,14.45
2018-02-05T21:17:47.476Z,15.95
2018-02-05T21:20:15.586Z,17.73
2018-02-05T21:22:44.514Z,15.88
2018-02-05T21:25:12.641Z,16.37
2018-02-05T21:27:40.766Z,17.42
2018-02-05T21:30:08.917Z,17.92
2018-02-05T21:32:37.053Z,17.87
2018-02-05T21:35:05.983Z,17.50
2018-02-05T21:37:34.118Z,17.95
2018-02-05T21:40:02.437Z,17.40
2018-02-05T21:42:30.584Z,17.55
2018-02-05T21:44:58.786Z,15.15
2018-02-05T21:47:26.894Z,16.02
2018-02-05T21:49:55.045Z,17.08
2018-02-05T21:52:23.588Z,16.65
2018-02-05T21:54:51.742Z,16.85
2018-02-05T21:57:19.908Z,17.48
2018-02-05T21:59:48.855Z,19.12
2018-02-05T22:02:16.993Z,15.75
2018-02-05T22:04:45.134Z,16.85
2018-02-05T22:07:14.040Z,16.05
2018-02-05T22:09:42.173Z,15.32
2018-02-05T22:12:10.325Z,18.15
2018-02-05T22:14:38.466Z,16.90
2018-02-05T22:17:06.622Z,16.10
2018-02-05T22:19:35.517Z,16.33
2018-02-05T22:22:03.664Z,16.17
2018-02-05T22:24:32.561Z,16.35
2018-02-05T22:27:01.484Z,17.77
2018-02-05T22:29:29.652Z,15.98
2018-02-05T22:31:57.779Z,16.60
2018-02-05T22:34:27.061Z,17.10
2018-02-05T22:36:56.132Z,16.30
2018-02-05T22:39:24.381Z,18.55
2018-02-05T22:41:55.845Z,17.10
2018-02-05T22:44:24.133Z,17.05
2018-02-05T22:46:53.787Z,16.70
2018-02-05T22:49:21.933Z,17.90
2018-02-05T22:51:50.095Z,18.45
2018-02-05T22:54:18.224Z,17.92
2018-02-05T22:56:46.742Z,18.25
2018-02-05T22:59:14.875Z,19.05
2018-02-05T23:01:43.016Z,18.10
2018-02-05T23:04:11.158Z,17.25
2018-02-05T23:06:39.306Z,17.80
2018-02-05T23:09:08.204Z,18.90
2018-02-05T23:11:36.393Z,17.25
2018-02-05T23:14:05.288Z,17.65
2018-02-05T23:16:34.244Z,18.50
2018-02-05T23:19:02.395Z,22.42
2018-02-05T23:21:30.582Z,21.25
2018-02-05T23:23:59.187Z,20.62
2018-02-05T23:26:27.401Z,20.75
2018-02-05T23:28:55.511Z,19.30
2018-02-05T23:31:23.744Z,20.27
2018-02-05T23:33:51.882Z,21.23
2018-02-05T23:36:20.799Z,20.15
2018-02-05T23:38:49.038Z,20.40
2018-02-05T23:41:17.144Z,20.58
2018-02-05T23:43:46.054Z,20.85
2018-02-05T23:46:14.560Z,19.67
2018-02-05T23:48:42.685Z,19.77
2018-02-05T23:51:10.825Z,18.45
2018-02-05T23:53:38.963Z,20.83
2018-02-05T23:56:07.883Z,20.00
2018-02-05T23:58:36.009Z,19.75
